• Join FlightAware (Why Join?)
  • Login
  • US Flag 
04:28AM EST


 

Airport Tracker/Info


-or-


 

Live Flight TrackerFlight Track Log ✈ N960DL ✈ 12-May-2013 ✈ KATL - KORF

Flight Track Log - Related Links

Times and Time Zones

All times are in EDT time to prevent confusion due to time zone crossing. See the N960DL flight status page for this flight to view local times or setup timezone preferences in your user account.

Time Position Orientation Groundspeed Altitude Reporting Facility
EDT Latitude Longitude Course Direction KTS MPH feet Rate Location/Type
08:41AM 33.6328 -84.4731 64° Northeast 437 503 2,700  Level Atlanta Center
08:42AM 33.6033 -84.5475 245° Southwest 358 412 5,700 3,240 Climbing Atlanta Center
08:43AM 33.7025 -83.9476 101° East  Level FlightAware Approximate
08:43AM 33.5364 -84.5897 208° Southwest 286 329 9,200  Level Atlanta Center
08:44AM 33.6761 -83.7895 101° East  Level FlightAware Approximate
08:44AM 33.4614 -84.5517 157° South 305 351 12,200  Level Atlanta Center
08:45AM 33.6507 -83.6316 64° Northeast  Level FlightAware Approximate
08:45AM 33.4575 -84.4272 92° East 303 349 13,800  Level Atlanta Center
08:46AM 33.7098 -83.4869 64° Northeast  Level FlightAware Approximate
08:46AM 33.4600 -84.2878 89° East 375 432 16,400  Level Atlanta Center
08:47AM 33.5103 -84.1583 65° Northeast 401 461 18,600 2,220 Climbing Atlanta Center
08:48AM 33.5667 -84.0239 63° Northeast 433 498 20,900 2,100 Climbing Atlanta Center
08:49AM 33.6147 -83.8792 68° East 458 527 22,900 2,040 Climbing Atlanta Center
08:50AM 33.6478 -83.7244 76° East 475 547 25,000 1,800 Climbing Atlanta Center
08:51AM 33.6931 -83.5694 71° East 481 554 26,500 1,500 Climbing Atlanta Center
08:52AM 33.7572 -83.4167 63° Northeast 487 560 28,000 1,500 Climbing Atlanta Center
08:53AM 33.8106 -83.2789 65° Northeast 504 580 29,600 1,440 Climbing Atlanta Center
08:54AM 33.8700 -83.1206 66° East 504 580 30,900 1,080 Climbing Atlanta Center
08:55AM 33.9336 -82.9622 64° Northeast 509 586 31,800 780 Climbing Atlanta Center
08:56AM 33.9819 -82.7861 72° East 532 612 32,500 900 Climbing Atlanta Center
08:57AM 34.0322 -82.6125 71° East 544 626 33,600 1,020 Climbing Atlanta Center
08:58AM 34.0781 -82.4386 72° East 545 627 34,600 1,020 Climbing Atlanta Center
08:59AM 34.1317 -82.2444 72° East 545 627 35,700 960 Climbing Atlanta Center
09:00AM 34.1856 -82.0700 69° East 545 627 36,600 600 Climbing Atlanta Center
09:01AM 34.2600 -81.9125 60° Northeast 540 621 37,000 180 Climbing Atlanta Center
09:02AM 34.3428 -81.7619 56° Northeast 533 613 37,000  Level Atlanta Center
09:03AM 34.4233 -81.6086 57° Northeast 538 619 37,000  Level Atlanta Center
09:04AM 34.5058 -81.4575 56° Northeast 538 619 37,000  Level Atlanta Center
09:05AM 34.5842 -81.3064 58° Northeast 533 613 37,000 -60 Level Atlanta Center
09:06AM 34.6561 -81.1728 57° Northeast 533 613 36,900  Descending Atlanta Center
09:07AM 34.7358 -81.0183 58° Northeast 533 613 37,000  Climbing Atlanta Center
09:09AM 34.8719 -80.7561 58° Northeast 531 611 37,000  Level Washington Center
09:10AM 34.9514 -80.6017 58° Northeast 536 617 37,000  Level Washington Center
09:11AM 35.0286 -80.4492 58° Northeast 530 610 37,000  Level Washington Center
09:12AM 35.1081 -80.2914 58° Northeast 535 616 37,000  Level Washington Center
09:13AM 35.1869 -80.1411 57° Northeast 530 610 37,000  Level Washington Center
09:14AM 35.2625 -79.9647 62° Northeast 525 604 37,000  Level Washington Center
09:15AM 35.3186 -79.7922 68° East 525 604 37,000 -300 Level Washington Center
09:16AM 35.3747 -79.6219 68° East 535 616 36,400 -540 Descending Washington Center
09:17AM 35.4283 -79.4514 69° East 535 616 36,000 -240 Descending Washington Center
09:18AM 35.4811 -79.2956 67° East 540 621 36,000 -360 Level Washington Center
09:19AM 35.5386 -79.1247 67° East 540 621 35,300 -1,380 Descending Washington Center
09:20AM 35.5961 -78.9358 69° East 540 621 33,300 -1,620 Descending Washington Center
09:21AM 35.6531 -78.7617 68° East 546 628 32,100 -1,920 Descending Washington Center
09:22AM 35.7094 -78.5900 68° East 541 623 29,500 -2,160 Descending Washington Center
09:23AM 35.7528 -78.4406 70° East 536 617 27,800 -1,740 Descending Washington Center
09:24AM 35.8069 -78.2711 68° East 531 611 26,100 -1,440 Descending Washington Center
09:25AM 35.8564 -78.1086 69° East 519 597 25,000 -960 Descending Washington Center
09:26AM 35.9078 -77.9436 69° East 514 592 24,200 -900 Descending Washington Center
09:27AM 35.9544 -77.7833 70° East 503 579 23,200 -960 Descending Washington Center
09:28AM 36.0136 -77.6308 64° Northeast 497 572 22,300 -1,200 Descending Washington Center
09:29AM 36.0867 -77.4939 57° Northeast 478 550 20,900 -1,560 Descending Washington Center
09:30AM 36.1683 -77.3492 55° Northeast 469 540 19,200 -1,800 Descending Washington Center
09:31AM 36.2411 -77.2169 56° Northeast 464 534 17,300 -1,980 Descending Washington Center
09:32AM 36.2817 -77.1456 55° Northeast 451 519 16,200 -1,980 Descending Washington Center
09:32AM 36.3072 -77.0972 57° Northeast 446 513 15,500 -1,920 Descending Washington Center
09:33AM 36.3756 -76.9800 54° Northeast 421 484 13,500 -1,980 Descending Washington Center
09:34AM 36.4372 -76.8750 54° Northeast 398 458 11,700 -1,680 Descending Washington Center
09:35AM 36.4944 -76.7753 54° Northeast 357 411 10,300 -1,560 Descending Washington Center
09:36AM 36.5453 -76.6881 54° Northeast 295 339 8,500 -1,800 Descending Washington Center
09:37AM 36.5919 -76.6033 56° Northeast 298 343 6,600 -1,680 Descending Washington Center
09:38AM 36.6322 -76.5367 53° Northeast 263 303 5,100 -1,800 Descending Washington Center
09:39AM 36.6661 -76.4800 53° Northeast 229 264 3,100 -1,560 Descending Washington Center
09:40AM 36.6978 -76.4261 54° Northeast 199 229 2,100 -540 Descending Washington Center
09:41AM 36.7294 -76.3694 55° Northeast 182 209 2,100 -60 Level Washington Center
09:42AM 36.7733 -76.3206 42° Northeast 183 211 2,000 -120 Descending Washington Center
09:43AM 36.8156 -76.2794 38° Northeast 185 213 1,900 -120 Descending Washington Center